Time;durP1;ratioP1;P1;durP2;ratioP2;P2;SDS_P1;SDS_P2;PMS_P1;PMS_P2;Temp;Humidity;BMP_temperature;BMP_pressure;BME280_temperature;BME280_humidity;BME280_pressure;Samples;Min_cycle;Max_cycle;Signal;HPM_P1;HPM_P2
2021/05/02 00:01:16;;;;;;;68.05;29.80;;;8.50;99.10;;;;;;5101398;28;20178;-85
2021/05/02 00:03:43;;;;;;;70.93;28.17;;;8.50;99.10;;;;;;5118807;28;20203;-85
2021/05/02 00:06:10;;;;;;;74.93;29.30;;;8.50;99.10;;;;;;5101330;28;20171;-85
2021/05/02 00:08:37;;;;;;;71.28;29.27;;;8.50;99.10;;;;;;5099755;28;20224;-86
2021/05/02 00:11:05;;;;;;;62.58;27.63;;;8.50;99.10;;;;;;5100767;28;20178;-86
2021/05/02 00:13:31;;;;;;;77.15;28.50;;;8.50;99.10;;;;;;5100185;28;20203;-86
2021/05/02 00:15:57;;;;;;;64.73;28.17;;;8.50;99.10;;;;;;5100326;28;20198;-86
2021/05/02 00:18:25;;;;;;;74.40;31.07;;;8.50;99.10;;;;;;5100337;28;20964;-85
2021/05/02 00:20:55;;;;;;;63.33;26.35;;;8.50;99.10;;;;;;5099463;28;20925;-85
2021/05/02 00:23:22;;;;;;;61.17;27.63;;;8.40;99.10;;;;;;5100316;28;20184;-85
2021/05/02 00:25:49;;;;;;;65.13;27.33;;;8.40;99.10;;;;;;5099747;28;20602;-86
2021/05/02 00:28:15;;;;;;;61.97;26.23;;;8.40;99.10;;;;;;5099303;28;20207;-82
2021/05/02 00:30:43;;;;;;;59.75;25.88;;;8.40;99.10;;;;;;5098845;28;20178;-82
2021/05/02 00:33:09;;;;;;;63.97;27.83;;;8.40;99.10;;;;;;5098478;28;20171;-83
2021/05/02 00:35:36;;;;;;;60.53;25.38;;;8.40;99.10;;;;;;5098094;28;20667;-83
2021/05/02 00:38:02;;;;;;;65.70;25.20;;;8.30;99.10;;;;;;5097883;28;20199;-83
2021/05/02 00:40:36;;;;;;;62.38;25.80;;;8.30;99.10;;;;;;5099212;28;20224;-83
2021/05/02 00:43:08;;;;;;;56.53;25.40;;;8.20;99.10;;;;;;5101968;28;20627;-83
2021/05/02 00:46:00;;;;;;;61.28;24.90;;;8.20;99.10;;;;;;5101831;28;20172;-83
2021/05/02 00:48:35;;;;;;;54.90;24.05;;;8.10;99.10;;;;;;5098493;28;20179;-83
2021/05/02 00:51:05;;;;;;;56.47;26.33;;;8.20;99.10;;;;;;5101940;28;20174;-83
2021/05/02 00:53:57;;;;;;;63.70;26.67;;;8.20;99.10;;;;;;5103592;28;20220;-83
2021/05/02 00:56:34;;;;;;;60.78;28.55;;;8.20;99.10;;;;;;5103291;28;20178;-83
2021/05/02 00:59:05;;;;;;;54.30;24.60;;;8.20;99.10;;;;;;5103024;28;20690;-83
2021/05/02 01:01:42;;;;;;;58.90;25.90;;;8.20;99.10;;;;;;5103419;28;20580;-83
2021/05/02 01:04:10;;;;;;;73.57;27.02;;;8.20;99.10;;;;;;5103314;28;20191;-83
2021/05/02 01:06:39;;;;;;;59.38;30.08;;;8.30;99.10;;;;;;5103033;28;20682;-83
2021/05/02 01:09:07;;;;;;;57.90;24.55;;;8.30;99.10;;;;;;5102559;28;20175;-83
2021/05/02 01:11:37;;;;;;;55.83;25.65;;;8.20;99.10;;;;;;5102599;28;20635;-83
2021/05/02 01:14:05;;;;;;;58.33;23.83;;;8.20;99.10;;;;;;5102728;28;20679;-83
2021/05/02 01:16:35;;;;;;;55.22;25.80;;;8.30;99.10;;;;;;5102697;28;20171;-83
2021/05/02 01:19:07;;;;;;;55.28;25.55;;;8.30;99.10;;;;;;5102789;28;20214;-83
2021/05/02 01:21:37;;;;;;;54.88;26.27;;;8.30;99.10;;;;;;5102480;28;20170;-83
2021/05/02 01:24:07;;;;;;;64.20;25.77;;;8.30;99.10;;;;;;5102731;28;20570;-84
2021/05/02 01:26:37;;;;;;;53.33;26.35;;;8.30;99.10;;;;;;5102409;28;20171;-83
2021/05/02 01:29:03;;;;;;;63.60;26.98;;;8.30;99.10;;;;;;5102498;28;20167;-84
2021/05/02 01:31:29;;;;;;;71.17;29.17;;;8.20;99.10;;;;;;5102011;28;20228;-83
2021/05/02 01:33:56;;;;;;;50.77;24.40;;;8.20;99.10;;;;;;5101423;28;20464;-83
2021/05/02 01:36:23;;;;;;;59.92;24.08;;;8.20;99.10;;;;;;5100945;28;20174;-83
2021/05/02 01:38:54;;;;;;;51.78;24.00;;;8.20;99.10;;;;;;5101540;28;20690;-83
2021/05/02 01:41:19;;;;;;;48.78;23.65;;;8.10;99.10;;;;;;5101653;28;20170;-82
2021/05/02 01:43:46;;;;;;;61.67;28.70;;;8.00;99.10;;;;;;5101468;28;20655;-83
2021/05/02 01:46:16;;;;;;;53.67;25.48;;;8.00;99.10;;;;;;5101336;28;20890;-83
2021/05/02 01:48:43;;;;;;;55.78;24.67;;;8.00;99.10;;;;;;5101837;28;20183;-83
2021/05/02 01:51:12;;;;;;;58.40;25.85;;;8.10;99.10;;;;;;5084648;28;20191;-83
2021/05/02 01:53:38;;;;;;;70.90;28.25;;;8.10;99.10;;;;;;5101553;28;20191;-83
2021/05/02 01:56:05;;;;;;;64.65;26.35;;;8.10;99.10;;;;;;5101843;28;20170;-83
2021/05/02 01:58:33;;;;;;;51.28;25.08;;;8.00;99.10;;;;;;5101274;28;20199;-83
2021/05/02 02:01:13;;;;;;;63.00;26.58;;;8.00;99.10;;;;;;5101432;28;20645;-83
2021/05/02 02:03:40;;;;;;;54.47;23.88;;;8.00;99.10;;;;;;5101664;28;20206;-83
2021/05/02 02:06:07;;;;;;;57.85;26.08;;;8.00;99.10;;;;;;5101677;28;20167;-83
2021/05/02 02:08:33;;;;;;;64.63;28.33;;;7.90;99.10;;;;;;5101297;28;20183;-83
2021/05/02 02:10:59;;;;;;;61.17;27.10;;;8.00;99.10;;;;;;5101354;28;20167;-83
2021/05/02 02:13:25;;;;;;;58.33;25.92;;;8.00;99.10;;;;;;5100648;28;21111;-83
2021/05/02 02:15:51;;;;;;;51.53;25.40;;;8.00;99.10;;;;;;5100669;28;20167;-83
2021/05/02 02:18:18;;;;;;;60.93;25.27;;;8.00;99.10;;;;;;5100515;28;20886;-83
2021/05/02 02:20:46;;;;;;;55.70;25.95;;;8.10;99.10;;;;;;5099597;28;20462;-83
2021/05/02 02:23:33;;;;;;;48.85;23.73;;;8.10;99.10;;;;;;5099515;28;20174;-83
2021/05/02 02:26:25;;;;;;;64.15;27.63;;;8.00;99.10;;;;;;5099657;28;20163;-82
2021/05/02 02:28:53;;;;;;;61.92;27.60;;;8.00;99.10;;;;;;5096737;28;20184;-82
2021/05/02 02:31:21;;;;;;;70.88;28.10;;;8.00;99.10;;;;;;5100754;28;20175;-83
2021/05/02 02:33:47;;;;;;;71.32;30.23;;;7.90;99.10;;;;;;5101092;28;20569;-83
2021/05/02 02:36:14;;;;;;;62.60;27.33;;;7.90;99.10;;;;;;5101062;28;20173;-83
2021/05/02 02:38:45;;;;;;;63.90;28.23;;;7.90;99.10;;;;;;5100880;28;20226;-82
2021/05/02 02:41:16;;;;;;;73.22;30.70;;;7.90;99.10;;;;;;5100123;28;20194;-83
2021/05/02 02:43:52;;;;;;;63.35;28.17;;;7.90;99.10;;;;;;5099851;28;20236;-82
2021/05/02 02:46:19;;;;;;;62.65;29.00;;;7.90;99.10;;;;;;5100393;28;20166;-83
2021/05/02 02:48:50;;;;;;;65.25;29.65;;;7.90;99.10;;;;;;5100324;28;20172;-83
2021/05/02 02:51:17;;;;;;;61.75;27.83;;;7.90;99.10;;;;;;5100845;28;20187;-83
2021/05/02 02:53:44;;;;;;;68.70;28.98;;;7.80;99.10;;;;;;5100410;28;20221;-83
2021/05/02 02:56:14;;;;;;;63.42;30.15;;;7.70;99.10;;;;;;5099251;28;20171;-83
2021/05/02 02:58:57;;;;;;;72.35;32.17;;;7.70;99.10;;;;;;5099205;28;20206;-83
2021/05/02 03:01:26;;;;;;;66.00;29.25;;;7.70;99.10;;;;;;5099305;28;20227;-83
2021/05/02 03:03:55;;;;;;;71.70;31.13;;;7.70;99.10;;;;;;5098522;28;20217;-83
2021/05/02 03:06:24;;;;;;;72.13;31.58;;;7.70;99.10;;;;;;5099699;28;20180;-82
2021/05/02 03:08:53;;;;;;;72.78;32.10;;;7.70;99.10;;;;;;5099505;28;20695;-82
2021/05/02 03:11:19;;;;;;;71.95;27.90;;;7.70;99.10;;;;;;5099873;28;20631;-83
2021/05/02 03:13:45;;;;;;;57.63;26.80;;;7.70;99.10;;;;;;5099418;28;20690;-83
2021/05/02 03:16:12;;;;;;;63.25;29.60;;;7.60;99.10;;;;;;5099168;28;20175;-82
2021/05/02 03:19:01;;;;;;;59.60;28.38;;;7.60;99.10;;;;;;5098982;28;20293;-83
2021/05/02 03:21:46;;;;;;;67.18;29.35;;;7.60;99.10;;;;;;5099300;28;20641;-83
2021/05/02 03:24:14;;;;;;;75.40;28.50;;;7.60;99.10;;;;;;5099957;28;20183;-83
2021/05/02 03:26:41;;;;;;;59.05;28.17;;;7.70;99.10;;;;;;5099337;28;20167;-82
2021/05/02 03:29:11;;;;;;;61.97;28.10;;;7.70;99.10;;;;;;5099587;28;20182;-83
2021/05/02 03:31:42;;;;;;;61.08;29.25;;;7.80;99.10;;;;;;5099950;28;20172;-83
2021/05/02 03:34:11;;;;;;;59.50;27.25;;;7.80;99.10;;;;;;5100838;28;20282;-83
2021/05/02 03:36:45;;;;;;;56.35;26.00;;;7.80;99.10;;;;;;5099588;28;20171;-83
2021/05/02 03:39:11;;;;;;;70.03;26.08;;;7.80;99.10;;;;;;5099677;28;20206;-83
2021/05/02 03:41:37;;;;;;;52.40;26.45;;;7.80;99.10;;;;;;5099976;28;20258;-83
2021/05/02 03:44:04;;;;;;;58.23;26.73;;;7.80;99.00;;;;;;5100411;28;20225;-83
2021/05/02 03:46:30;;;;;;;70.90;28.20;;;7.80;98.20;;;;;;5099978;28;20419;-83
2021/05/02 03:48:59;;;;;;;55.83;26.05;;;7.80;98.60;;;;;;5100545;28;20635;-83
2021/05/02 03:51:27;;;;;;;54.67;24.83;;;7.80;98.60;;;;;;5099399;28;20167;-83
2021/05/02 03:53:53;;;;;;;69.68;30.00;;;7.80;98.10;;;;;;5099115;28;20195;-83
2021/05/02 03:56:33;;;;;;;57.95;26.60;;;7.70;97.70;;;;;;5099338;28;20193;-84
2021/05/02 03:59:10;;;;;;;61.33;28.95;;;7.70;98.20;;;;;;5100201;28;20198;-84
2021/05/02 04:01:43;;;;;;;54.70;26.85;;;7.80;99.10;;;;;;5100003;28;20193;-83
2021/05/02 04:04:14;;;;;;;55.67;28.10;;;7.90;98.90;;;;;;5099863;28;20631;-83
2021/05/02 04:06:40;;;;;;;56.80;27.77;;;8.00;98.30;;;;;;5100242;28;20258;-83
2021/05/02 04:09:11;;;;;;;53.08;27.27;;;8.00;97.90;;;;;;5099952;28;20258;-83
2021/05/02 04:11:37;;;;;;;56.00;27.50;;;8.10;97.80;;;;;;5100921;28;20175;-83
2021/05/02 04:14:07;;;;;;;49.47;26.38;;;8.10;98.00;;;;;;5100693;28;20206;-83
2021/05/02 04:16:33;;;;;;;54.80;25.20;;;8.10;97.10;;;;;;5104508;28;20167;-84
2021/05/02 04:19:04;;;;;;;57.78;27.95;;;8.20;97.80;;;;;;5104590;28;20250;-83
2021/05/02 04:21:31;;;;;;;61.55;28.98;;;8.30;98.50;;;;;;5103650;28;20623;-83
2021/05/02 04:23:57;;;;;;;52.88;26.90;;;8.30;98.80;;;;;;5103502;28;20187;-83
2021/05/02 04:26:23;;;;;;;54.57;27.50;;;8.40;98.90;;;;;;5103676;28;20278;-84
2021/05/02 04:28:49;;;;;;;56.33;26.67;;;8.50;99.00;;;;;;5102046;28;20823;-84
2021/05/02 04:31:15;;;;;;;53.15;26.92;;;8.50;99.10;;;;;;5100217;28;20412;-80
2021/05/02 04:33:40;;;;;;;55.03;27.47;;;8.60;99.10;;;;;;5100149;28;20288;-84
2021/05/02 04:36:07;;;;;;;69.33;28.77;;;8.60;99.10;;;;;;5100145;28;20419;-84
2021/05/02 04:38:34;;;;;;;58.53;27.25;;;8.70;99.10;;;;;;5100333;28;20487;-84
2021/05/02 04:41:00;;;;;;;62.45;27.60;;;8.70;99.10;;;;;;5100012;28;20594;-84
2021/05/02 04:43:25;;;;;;;51.33;26.37;;;8.70;99.10;;;;;;5099795;28;20163;-84
2021/05/02 04:45:51;;;;;;;62.90;29.47;;;8.70;98.70;;;;;;5099585;28;20412;-84
2021/05/02 04:48:17;;;;;;;58.97;27.43;;;8.70;98.90;;;;;;5100003;28;20413;-84
2021/05/02 04:50:43;;;;;;;59.83;27.90;;;8.70;98.70;;;;;;5100235;28;20397;-84
2021/05/02 04:53:09;;;;;;;64.47;27.53;;;8.70;98.70;;;;;;5100151;28;20413;-83
2021/05/02 04:55:35;;;;;;;56.03;26.42;;;8.70;98.70;;;;;;5102743;28;20928;-83
2021/05/02 04:58:06;;;;;;;66.70;28.83;;;8.70;98.60;;;;;;5103257;28;20294;-83
2021/05/02 05:00:32;;;;;;;64.10;28.08;;;8.70;98.60;;;;;;5102963;28;20407;-85
2021/05/02 05:02:58;;;;;;;66.55;28.70;;;8.70;98.60;;;;;;5101570;28;20183;-84
2021/05/02 05:05:24;;;;;;;58.00;29.42;;;8.70;98.80;;;;;;5102271;28;20183;-83
2021/05/02 05:07:50;;;;;;;57.92;28.52;;;8.70;98.80;;;;;;5103369;28;20661;-83
2021/05/02 05:10:16;;;;;;;58.67;27.63;;;8.70;98.70;;;;;;5103065;28;20198;-83
2021/05/02 05:12:42;;;;;;;63.20;27.60;;;8.70;98.80;;;;;;5102765;28;20175;-83
2021/05/02 05:15:09;;;;;;;58.23;28.77;;;8.70;98.60;;;;;;5102353;28;20201;-82
2021/05/02 05:17:36;;;;;;;57.67;27.70;;;8.70;98.60;;;;;;5101841;28;20543;-83
2021/05/02 05:20:04;;;;;;;57.58;25.58;;;8.70;98.60;;;;;;5101901;28;20214;-83
2021/05/02 05:22:29;;;;;;;58.55;28.65;;;8.60;98.60;;;;;;5102376;28;20220;-83
2021/05/02 05:24:55;;;;;;;54.77;27.00;;;8.60;98.60;;;;;;5101584;28;20187;-83
2021/05/02 05:27:21;;;;;;;60.30;28.20;;;8.70;98.70;;;;;;5101398;28;20561;-83
2021/05/02 05:29:47;;;;;;;71.80;27.33;;;8.70;98.40;;;;;;5101707;28;20405;-83
2021/05/02 05:32:12;;;;;;;64.70;28.90;;;8.70;97.90;;;;;;5120461;28;20470;-83
2021/05/02 05:34:38;;;;;;;55.70;27.30;;;8.70;97.90;;;;;;5101582;28;20219;-83
2021/05/02 05:37:04;;;;;;;62.00;27.83;;;8.70;98.50;;;;;;5100711;28;20171;-82
2021/05/02 05:39:30;;;;;;;57.03;30.27;;;8.70;97.80;;;;;;5100858;28;20463;-83
2021/05/02 05:41:55;;;;;;;64.33;28.03;;;8.70;97.90;;;;;;5100610;28;20187;-82
2021/05/02 05:44:21;;;;;;;61.17;30.30;;;8.70;98.50;;;;;;5100671;28;20190;-82
2021/05/02 05:46:47;;;;;;;58.57;27.87;;;8.70;98.20;;;;;;5100510;28;20174;-82
2021/05/02 05:49:15;;;;;;;57.57;27.03;;;8.70;97.50;;;;;;5100674;28;20773;-82
2021/05/02 05:51:41;;;;;;;47.65;25.17;;;8.70;97.90;;;;;;5101036;28;20677;-82
2021/05/02 05:54:07;;;;;;;49.60;26.77;;;8.70;97.50;;;;;;5100933;28;20191;-82
2021/05/02 05:56:32;;;;;;;53.70;26.77;;;8.70;98.10;;;;;;5100052;28;20417;-82
2021/05/02 05:58:58;;;;;;;53.20;25.77;;;8.80;98.10;;;;;;5100222;28;20194;-82
2021/05/02 06:01:24;;;;;;;53.23;25.53;;;8.80;97.50;;;;;;5100310;28;20408;-82
2021/05/02 06:03:51;;;;;;;51.00;24.80;;;8.90;97.40;;;;;;5102040;28;20234;-82
2021/05/02 06:06:17;;;;;;;53.50;24.23;;;8.90;97.60;;;;;;5103513;28;20601;-82
2021/05/02 06:08:43;;;;;;;48.83;24.70;;;9.00;97.40;;;;;;5106775;28;20191;-83
2021/05/02 06:11:08;;;;;;;48.00;25.23;;;8.90;96.30;;;;;;5105456;28;20631;-83
2021/05/02 06:13:34;;;;;;;50.97;25.97;;;8.90;96.60;;;;;;5105002;28;20179;-83
2021/05/02 06:16:00;;;;;;;55.17;26.53;;;9.00;97.20;;;;;;5106012;28;20686;-82
2021/05/02 06:18:25;;;;;;;49.80;25.83;;;9.10;97.40;;;;;;5105993;28;20524;-83
2021/05/02 06:20:51;;;;;;;51.80;25.27;;;9.20;97.30;;;;;;5104657;28;20686;-83
2021/05/02 06:23:18;;;;;;;46.43;25.33;;;9.30;96.80;;;;;;5104410;28;20174;-82
2021/05/02 06:25:44;;;;;;;49.25;24.85;;;9.30;96.20;;;;;;5104564;28;20869;-82
2021/05/02 06:28:10;;;;;;;57.50;26.50;;;9.30;95.70;;;;;;5105142;28;20199;-83
2021/05/02 06:30:36;;;;;;;52.20;24.37;;;9.30;96.50;;;;;;5105039;28;20441;-82
2021/05/02 06:33:01;;;;;;;44.30;24.03;;;9.40;96.20;;;;;;5104904;28;20171;-82
2021/05/02 06:35:28;;;;;;;40.43;20.70;;;9.40;95.10;;;;;;5105629;28;20441;-82
2021/05/02 06:37:53;;;;;;;46.70;22.58;;;9.40;93.80;;;;;;5104437;28;20810;-82
2021/05/02 06:40:19;;;;;;;51.17;25.80;;;9.40;95.10;;;;;;5106577;28;20195;-82
2021/05/02 06:42:45;;;;;;;56.53;26.92;;;9.50;95.30;;;;;;5105595;28;20212;-82
2021/05/02 06:45:12;;;;;;;52.08;25.40;;;9.50;96.40;;;;;;5105136;28;20195;-83
2021/05/02 06:47:38;;;;;;;47.10;24.10;;;9.50;97.10;;;;;;5105159;28;20200;-83
2021/05/02 06:50:04;;;;;;;47.28;24.00;;;9.70;95.90;;;;;;5104903;28;20544;-82
2021/05/02 06:52:30;;;;;;;50.42;25.10;;;9.70;95.80;;;;;;5103632;28;20174;-83
2021/05/02 06:54:56;;;;;;;39.00;22.67;;;9.80;96.10;;;;;;5104207;28;20195;-83
2021/05/02 06:57:22;;;;;;;41.73;21.70;;;9.80;95.50;;;;;;5105513;28;20424;-84
2021/05/02 06:59:48;;;;;;;41.88;23.55;;;9.90;94.50;;;;;;5105165;28;20240;-85
2021/05/02 07:02:13;;;;;;;43.90;22.90;;;9.90;95.50;;;;;;5104261;28;20183;-85
2021/05/02 07:04:39;;;;;;;52.30;23.30;;;9.90;94.90;;;;;;5104365;28;20433;-84
2021/05/02 07:07:05;;;;;;;50.73;23.10;;;10.00;93.50;;;;;;5105311;28;20651;-83
2021/05/02 07:09:31;;;;;;;44.97;22.95;;;10.20;94.30;;;;;;5103547;28;20549;-84
2021/05/02 07:11:58;;;;;;;44.13;23.83;;;10.30;94.30;;;;;;5105221;28;20175;-85
2021/05/02 07:14:24;;;;;;;43.58;23.13;;;10.40;94.80;;;;;;5104201;28;20260;-84
2021/05/02 07:16:50;;;;;;;42.58;22.05;;;10.50;95.60;;;;;;5104440;28;20642;-84
2021/05/02 07:19:17;;;;;;;33.28;19.33;;;10.50;92.90;;;;;;5103923;28;20734;-83
2021/05/02 07:21:43;;;;;;;38.30;17.58;;;10.60;91.60;;;;;;5103131;28;20262;-84
2021/05/02 07:24:09;;;;;;;36.60;19.70;;;10.60;89.90;;;;;;5102905;28;20215;-84
2021/05/02 07:26:35;;;;;;;38.55;19.48;;;10.60;90.90;;;;;;5103660;28;20405;-84
2021/05/02 07:29:00;;;;;;;33.77;19.30;;;10.60;93.00;;;;;;5103060;28;20267;-84
2021/05/02 07:31:26;;;;;;;37.60;19.27;;;10.70;91.20;;;;;;5103120;28;20171;-84
2021/05/02 07:33:53;;;;;;;37.60;19.30;;;10.80;90.40;;;;;;5102002;28;20198;-84
2021/05/02 07:36:21;;;;;;;34.88;18.02;;;10.90;89.80;;;;;;5102908;28;20408;-84
2021/05/02 07:38:47;;;;;;;38.42;15.00;;;11.00;87.00;;;;;;5103548;28;20199;-84
2021/05/02 07:41:13;;;;;;;35.13;19.00;;;11.00;85.80;;;;;;5102553;28;20224;-85
2021/05/02 07:43:40;;;;;;;34.97;16.47;;;11.00;85.20;;;;;;5102730;28;20953;-84
2021/05/02 07:46:06;;;;;;;24.63;14.95;;;11.10;84.60;;;;;;5103246;28;20397;-84
2021/05/02 07:48:32;;;;;;;27.45;16.35;;;11.30;83.80;;;;;;5101854;28;20506;-84
2021/05/02 07:50:58;;;;;;;26.00;14.93;;;11.40;85.30;;;;;;5099576;28;20181;-84
2021/05/02 07:53:24;;;;;;;32.38;17.52;;;11.70;85.90;;;;;;5100952;28;20924;-84
2021/05/02 07:55:50;;;;;;;33.70;16.33;;;11.90;83.80;;;;;;5101057;28;20350;-84
2021/05/02 07:58:16;;;;;;;35.50;15.83;;;12.00;82.10;;;;;;5100463;28;20191;-83
2021/05/02 08:00:42;;;;;;;34.20;17.73;;;12.10;81.70;;;;;;5100475;28;20243;-84
2021/05/02 08:03:08;;;;;;;25.80;15.57;;;12.10;80.30;;;;;;5102676;28;20439;-84
2021/05/02 08:05:33;;;;;;;26.47;16.00;;;12.10;81.40;;;;;;5102983;28;20417;-83
2021/05/02 08:07:59;;;;;;;33.73;16.13;;;12.00;78.40;;;;;;5104034;28;20913;-84
2021/05/02 08:10:26;;;;;;;36.50;17.30;;;11.90;80.10;;;;;;5103128;28;20494;-83
2021/05/02 08:12:56;;;;;;;29.13;16.30;;;11.90;79.60;;;;;;5102629;28;20427;-83
2021/05/02 08:15:22;;;;;;;30.70;15.52;;;11.80;79.10;;;;;;5102523;28;20194;-84
2021/05/02 08:17:48;;;;;;;27.15;17.20;;;11.50;79.50;;;;;;5102890;28;20217;-84
2021/05/02 08:20:15;;;;;;;31.00;18.55;;;11.50;82.30;;;;;;5103382;28;20578;-83
2021/05/02 08:22:40;;;;;;;29.00;15.48;;;11.50;81.40;;;;;;5103706;28;20257;-85
2021/05/02 08:25:07;;;;;;;32.60;16.93;;;11.40;81.00;;;;;;5104758;28;20198;-84
2021/05/02 08:27:34;;;;;;;27.88;15.50;;;11.30;79.60;;;;;;5104115;28;20443;-84
2021/05/02 08:30:00;;;;;;;29.92;16.00;;;11.40;80.60;;;;;;5103235;28;20175;-83
2021/05/02 08:32:26;;;;;;;28.00;16.50;;;11.40;77.40;;;;;;5102852;28;20202;-84
2021/05/02 08:34:52;;;;;;;30.53;15.87;;;11.50;77.00;;;;;;5100853;28;20184;-84
2021/05/02 08:37:19;;;;;;;24.98;14.75;;;11.70;72.70;;;;;;5102240;28;20431;-87
2021/05/02 08:39:44;;;;;;;29.58;14.75;;;11.80;73.50;;;;;;5099567;28;20206;-84
2021/05/02 08:42:10;;;;;;;22.50;14.50;;;11.70;69.90;;;;;;5101212;28;20167;-83
2021/05/02 08:44:36;;;;;;;31.87;16.03;;;11.70;71.60;;;;;;5100713;28;20216;-84
2021/05/02 08:47:04;;;;;;;27.10;14.63;;;11.70;71.20;;;;;;5101579;28;20413;-83
2021/05/02 08:49:30;;;;;;;31.42;16.08;;;11.80;71.70;;;;;;5101372;28;20224;-83
2021/05/02 08:51:56;;;;;;;25.70;15.65;;;11.90;71.90;;;;;;5101832;28;20171;-83
2021/05/02 08:54:22;;;;;;;24.40;14.27;;;12.00;71.00;;;;;;5102865;28;20259;-84
2021/05/02 08:56:56;;;;;;;30.17;16.27;;;12.20;71.90;;;;;;5101981;28;20412;-84
2021/05/02 08:59:22;;;;;;;24.20;14.48;;;12.40;72.10;;;;;;5101271;28;20195;-84
2021/05/02 09:01:47;;;;;;;22.00;14.43;;;12.50;71.20;;;;;;5103378;28;20158;-83
2021/05/02 09:04:15;;;;;;;27.43;13.70;;;12.60;67.10;;;;;;5105518;28;20432;-83
2021/05/02 09:06:42;;;;;;;28.33;14.45;;;12.60;67.10;;;;;;5105012;28;20405;-84
2021/05/02 09:09:12;;;;;;;30.73;15.38;;;12.60;65.20;;;;;;5105490;28;20175;-84
2021/05/02 09:11:41;;;;;;;29.13;14.77;;;12.60;67.60;;;;;;5104322;28;20185;-83
2021/05/02 09:14:10;;;;;;;23.33;13.98;;;12.80;65.50;;;;;;5104624;28;20685;-83
2021/05/02 09:16:50;;;;;;;23.83;14.63;;;12.90;65.20;;;;;;5105668;28;20585;-83
2021/05/02 09:19:17;;;;;;;30.15;15.98;;;13.10;64.90;;;;;;5105029;28;20199;-84
2021/05/02 09:21:43;;;;;;;38.55;14.95;;;13.00;64.90;;;;;;5105451;28;20167;-83
2021/05/02 09:24:33;;;;;;;30.52;14.15;;;12.90;64.80;;;;;;5104542;28;20221;-84
2021/05/02 09:27:04;;;;;;;32.15;14.73;;;12.80;64.50;;;;;;5105350;28;20163;-84
2021/05/02 09:29:31;;;;;;;20.55;13.80;;;12.70;66.60;;;;;;5110002;28;20666;-83
2021/05/02 09:32:01;;;;;;;27.52;15.15;;;12.60;67.30;;;;;;5104856;28;20178;-81
2021/05/02 09:34:27;;;;;;;27.77;15.82;;;12.60;66.00;;;;;;5105326;28;20202;-83
2021/05/02 09:37:05;;;;;;;28.83;15.05;;;12.60;68.50;;;;;;5104614;28;20220;-84
2021/05/02 09:39:37;;;;;;;29.42;16.10;;;12.60;67.80;;;;;;5104216;28;20202;-83
2021/05/02 09:42:37;;;;;;;26.42;14.82;;;12.80;66.30;;;;;;5103675;28;20254;-82
2021/05/02 09:45:11;;;;;;;25.65;15.00;;;13.00;63.00;;;;;;5103982;28;20201;-82
2021/05/02 09:47:41;;;;;;;27.38;15.25;;;13.30;63.30;;;;;;5104113;28;20257;-82
2021/05/02 09:50:25;;;;;;;27.30;15.57;;;13.60;60.90;;;;;;5104193;28;20162;-83
2021/05/02 09:52:51;;;;;;;25.60;15.68;;;13.50;61.70;;;;;;5103130;28;20171;-83
2021/05/02 09:55:27;;;;;;;24.52;14.52;;;13.50;61.20;;;;;;5103421;28;20216;-83
2021/05/02 09:57:54;;;;;;;29.05;15.50;;;13.50;60.80;;;;;;5102499;28;20191;-83
2021/05/02 10:00:44;;;;;;;31.63;15.68;;;13.40;60.80;;;;;;5103007;28;20537;-81
2021/05/02 10:03:30;;;;;;;22.55;15.05;;;13.20;62.40;;;;;;5094968;28;20191;-81
2021/05/02 10:06:05;;;;;;;32.33;17.02;;;13.00;64.40;;;;;;5104110;28;20194;-81
2021/05/02 10:08:39;;;;;;;27.90;16.05;;;12.90;65.60;;;;;;5104108;28;20242;-81
2021/05/02 10:11:10;;;;;;;23.85;14.80;;;12.80;66.90;;;;;;5103826;28;20534;-82
2021/05/02 10:13:39;;;;;;;33.92;17.90;;;12.80;65.10;;;;;;5104109;28;20222;-82
2021/05/02 10:16:05;;;;;;;34.90;18.02;;;12.70;64.60;;;;;;5103673;28;20179;-82
2021/05/02 10:18:32;;;;;;;32.42;17.60;;;12.70;63.90;;;;;;5104766;28;20198;-82
2021/05/02 10:20:58;;;;;;;26.20;17.25;;;12.70;63.70;;;;;;5105244;28;20171;-82
2021/05/02 10:23:24;;;;;;;27.92;14.82;;;12.70;63.30;;;;;;5104595;28;20202;-82
2021/05/02 10:25:55;;;;;;;27.35;16.15;;;12.80;65.50;;;;;;5103974;28;20196;-81
2021/05/02 10:28:32;;;;;;;30.27;16.58;;;13.00;64.80;;;;;;5103369;28;20163;-81
2021/05/02 10:31:01;;;;;;;28.60;16.88;;;13.50;62.30;;;;;;5103463;28;20178;-81
2021/05/02 10:33:31;;;;;;;21.67;14.68;;;14.10;58.10;;;;;;5105698;28;20171;-81
2021/05/02 10:36:03;;;;;;;71.97;32.13;;;14.50;57.70;;;;;;5103878;28;20634;-82
2021/05/02 10:38:49;;;;;;;35.15;17.17;;;14.50;56.20;;;;;;5105353;28;20213;-82
2021/05/02 10:41:27;;;;;;;23.48;14.93;;;14.40;56.30;;;;;;5102836;28;20266;-82
2021/05/02 10:43:56;;;;;;;26.58;15.63;;;14.20;56.20;;;;;;5103045;28;20187;-82
2021/05/02 10:46:43;;;;;;;24.38;14.38;;;14.10;57.10;;;;;;5103362;28;20274;-81
2021/05/02 10:49:10;;;;;;;26.27;14.05;;;14.00;57.40;;;;;;5103833;28;20213;-81
2021/05/02 10:51:36;;;;;;;22.83;13.20;;;14.00;57.00;;;;;;5103983;28;20520;-80
2021/05/02 10:54:07;;;;;;;23.50;15.43;;;14.00;55.40;;;;;;5103272;28;20248;-81
2021/05/02 10:56:58;;;;;;;27.17;16.13;;;14.00;55.00;;;;;;5103586;28;20449;-81
2021/05/02 10:59:27;;;;;;;38.72;18.02;;;14.40;55.40;;;;;;5106135;28;20282;-81
2021/05/02 11:01:54;;;;;;;29.45;18.30;;;14.50;59.70;;;;;;5105466;28;20171;-81
2021/05/02 11:04:20;;;;;;;29.45;17.77;;;14.70;58.10;;;;;;5105863;28;20712;-81
2021/05/02 11:06:51;;;;;;;27.10;16.63;;;14.90;59.80;;;;;;5104497;28;20565;-81
2021/05/02 11:09:17;;;;;;;26.77;16.30;;;15.20;53.40;;;;;;5105289;28;20594;-81
2021/05/02 11:11:50;;;;;;;27.60;15.98;;;15.20;53.40;;;;;;5105711;28;20171;-81
2021/05/02 11:14:21;;;;;;;35.28;17.85;;;15.30;57.10;;;;;;5105421;28;20194;-81
2021/05/02 11:16:49;;;;;;;51.83;27.45;;;15.30;57.20;;;;;;5104352;28;20623;-81
2021/05/02 11:19:22;;;;;;;37.78;21.90;;;15.10;55.40;;;;;;5104295;28;20206;-80
2021/05/02 11:21:51;;;;;;;29.40;20.15;;;15.00;55.70;;;;;;5101578;28;20163;-84
2021/05/02 11:24:25;;;;;;;68.20;43.03;;;14.90;56.00;;;;;;5100631;28;20204;-84
2021/05/02 11:32:29;;;;;;;31.25;17.20;;;14.30;58.50;;;;;;5125202;28;20649;-84
2021/05/02 11:35:07;;;;;;;26.20;15.65;;;14.30;57.60;;;;;;5105869;28;20194;-84
2021/05/02 11:38:05;;;;;;;31.38;17.15;;;14.10;58.00;;;;;;5105942;28;20206;-84
2021/05/02 11:40:31;;;;;;;27.17;15.55;;;13.80;59.10;;;;;;5104514;28;20175;-86
2021/05/02 11:43:07;;;;;;;29.77;18.47;;;13.50;61.40;;;;;;5104705;28;20175;-84
2021/05/02 11:45:47;;;;;;;37.03;18.90;;;12.60;71.30;;;;;;5101646;28;20425;-85
2021/05/02 11:48:25;;;;;;;33.55;18.67;;;11.80;76.60;;;;;;5099950;28;20265;-85
2021/05/02 11:50:55;;;;;;;42.03;21.42;;;11.10;80.50;;;;;;5097522;28;20586;-85
2021/05/02 11:53:39;;;;;;;36.33;20.67;;;10.70;85.10;;;;;;5098491;28;20226;-85
2021/05/02 11:56:29;;;;;;;40.97;21.55;;;10.60;88.10;;;;;;5098698;28;20174;-85
2021/05/02 11:59:01;;;;;;;33.33;19.52;;;10.80;87.80;;;;;;5086410;28;20260;-85
2021/05/02 12:01:30;;;;;;;37.28;21.95;;;11.00;87.70;;;;;;5098108;28;20161;-85
2021/05/02 12:04:14;;;;;;;34.28;20.50;;;11.40;86.90;;;;;;5098573;28;20226;-83
2021/05/02 12:06:40;;;;;;;37.35;21.98;;;11.80;87.60;;;;;;5099288;28;20159;-83
2021/05/02 12:09:15;;;;;;;41.70;22.27;;;12.30;84.40;;;;;;5098753;28;20674;-84
2021/05/02 12:11:42;;;;;;;30.73;18.65;;;12.80;86.00;;;;;;5096663;28;20205;-84
2021/05/02 12:14:15;;;;;;;33.08;20.35;;;13.20;79.10;;;;;;5096760;28;20277;-84
2021/05/02 12:16:42;;;;;;;33.80;16.35;;;13.60;81.40;;;;;;5115643;28;20159;-83
2021/05/02 12:19:09;;;;;;;24.65;16.30;;;13.90;76.00;;;;;;5096558;28;20226;-84
2021/05/02 12:21:39;;;;;;;20.67;13.60;;;13.80;74.20;;;;;;5097570;28;20183;-84
2021/05/02 12:24:06;;;;;;;20.40;13.25;;;14.00;74.50;;;;;;5095705;28;20218;-84
2021/05/02 12:26:33;;;;;;;19.08;11.52;;;14.10;71.60;;;;;;5095221;28;20171;-84
2021/05/02 12:29:05;;;;;;;19.33;12.23;;;13.80;70.60;;;;;;5096525;28;20171;-83
2021/05/02 12:31:32;;;;;;;21.67;11.73;;;13.60;67.10;;;;;;5095987;28;20175;-83
2021/05/02 12:33:58;;;;;;;18.75;12.30;;;13.40;67.00;;;;;;5095466;28;20194;-83
2021/05/02 12:36:28;;;;;;;22.67;13.38;;;13.00;68.80;;;;;;5098762;28;20198;-83
2021/05/02 12:39:09;;;;;;;21.02;12.80;;;12.80;70.50;;;;;;5099728;28;20187;-83
2021/05/02 12:41:36;;;;;;;20.88;12.13;;;12.50;71.20;;;;;;5100368;28;20649;-84
2021/05/02 12:44:23;;;;;;;20.38;12.35;;;12.10;74.90;;;;;;5099716;28;20183;-83
2021/05/02 12:46:51;;;;;;;30.60;14.68;;;11.70;78.90;;;;;;5099831;28;20638;-83
2021/05/02 12:49:22;;;;;;;17.10;10.70;;;11.60;82.30;;;;;;5098916;28;20179;-83